Time;durP1;ratioP1;P1;durP2;ratioP2;P2;SDS_P1;SDS_P2;PMS_P1;PMS_P2;Temp;Humidity;BMP_temperature;BMP_pressure;BME280_temperature;BME280_humidity;BME280_pressure;Samples;Min_cycle;Max_cycle;Signal;HPM_P1;HPM_P2
2021/12/01 00:01:30;;;;;;;;;26.33;21.67;;;;;;;;6490560;39;8913;-58
2021/12/01 00:07:36;;;;;;;;;21.00;18.00;;;;;;;;6490734;39;8952;-58
2021/12/01 00:13:41;;;;;;;;;28.00;25.00;;;;;;;;6491111;39;8940;-58
2021/12/01 00:19:43;;;;;;;;;19.00;19.00;;;;;;;;6490393;46;9039;-58
2021/12/01 00:25:47;;;;;;;;;24.67;21.67;;;;;;;;6491280;39;8845;-57
2021/12/01 00:31:50;;;;;;;;;15.00;12.67;;;;;;;;6489014;31;8950;-57
2021/12/01 00:37:53;;;;;;;;;14.75;14.00;;;;;;;;6490231;39;8885;-58
2021/12/01 00:43:56;;;;;;;;;17.00;15.50;;;;;;;;6490261;39;8855;-58
2021/12/01 00:49:58;;;;;;;;;18.00;17.00;;;;;;;;6490313;46;8925;-57
2021/12/01 00:56:00;;;;;;;;;22.00;18.50;;;;;;;;6490498;39;8938;-58
2021/12/01 01:02:02;;;;;;;;;19.00;15.00;;;;;;;;6490213;46;8937;-57
2021/12/01 01:08:06;;;;;;;;;17.00;15.50;;;;;;;;6490213;39;8895;-59
2021/12/01 01:20:30;;;;;;;;;7.50;7.50;;;;;;;;6489810;46;8978;-61
2021/12/01 01:26:32;;;;;;;;;13.25;13.00;;;;;;;;6489639;46;9012;-59
2021/12/01 01:32:35;;;;;;;;;15.75;15.75;;;;;;;;6491541;31;9007;-58
2021/12/01 01:38:38;;;;;;;;;16.50;13.50;;;;;;;;6490204;39;8904;-58
2021/12/01 01:44:41;;;;;;;;;10.50;10.50;;;;;;;;6489532;39;8930;-58
2021/12/01 01:50:44;;;;;;;;;10.75;10.00;;;;;;;;6489604;47;9032;-59
2021/12/01 01:56:47;;;;;;;;;24.50;17.50;;;;;;;;6489085;47;8895;-58
2021/12/01 02:02:50;;;;;;;;;9.00;9.00;;;;;;;;6489525;39;8913;-59
2021/12/01 02:08:57;;;;;;;;;12.00;10.00;;;;;;;;6488814;39;8930;-57
2021/12/01 02:15:01;;;;;;;;;9.50;9.50;;;;;;;;6489930;31;9029;-58
2021/12/01 02:21:11;;;;;;;;;9.25;9.25;;;;;;;;6489080;39;8879;-57
2021/12/01 02:27:14;;;;;;;;;10.75;9.50;;;;;;;;6491700;31;8963;-58
2021/12/01 02:33:16;;;;;;;;;9.00;9.00;;;;;;;;6491974;31;8935;-58
2021/12/01 02:39:21;;;;;;;;;8.50;8.50;;;;;;;;6491149;31;9033;-59
2021/12/01 02:45:23;;;;;;;;;9.00;9.00;;;;;;;;6490808;46;8895;-58
2021/12/01 02:51:32;;;;;;;;;8.00;6.00;;;;;;;;6490976;46;8921;-59
2021/12/01 02:57:43;;;;;;;;;10.00;9.25;;;;;;;;6491605;39;8925;-57
2021/12/01 03:03:47;;;;;;;;;9.00;9.00;;;;;;;;6491821;31;8938;-59
2021/12/01 03:09:50;;;;;;;;;5.50;4.50;;;;;;;;6491999;39;9597;-58
2021/12/01 03:15:53;;;;;;;;;9.00;7.00;;;;;;;;6491423;39;9530;-58
2021/12/01 03:21:55;;;;;;;;;12.25;10.00;;;;;;;;6490485;31;9606;-59
2021/12/01 03:27:58;;;;;;;;;8.00;8.00;;;;;;;;6491948;39;9024;-58
2021/12/01 03:34:02;;;;;;;;;0.25;0.25;;;;;;;;6490940;31;8886;-59
2021/12/01 03:40:07;;;;;;;;;10.50;9.25;;;;;;;;6490854;46;8889;-58
2021/12/01 03:46:10;;;;;;;;;9.00;9.00;;;;;;;;6490743;39;8847;-58
2021/12/01 03:52:17;;;;;;;;;8.75;8.75;;;;;;;;6491045;46;8981;-57
2021/12/01 03:58:20;;;;;;;;;11.50;11.50;;;;;;;;6491570;31;8984;-58
2021/12/01 04:04:22;;;;;;;;;12.25;10.25;;;;;;;;6491495;31;8910;-58
2021/12/01 04:10:25;;;;;;;;;14.00;14.00;;;;;;;;6489360;39;8934;-58
2021/12/01 04:16:27;;;;;;;;;13.25;11.00;;;;;;;;6489737;46;9000;-58
2021/12/01 04:22:30;;;;;;;;;12.00;7.00;;;;;;;;6490550;39;8919;-58
2021/12/01 04:28:32;;;;;;;;;11.00;9.50;;;;;;;;6491392;31;8963;-58
2021/12/01 04:34:36;;;;;;;;;9.00;9.00;;;;;;;;6490271;39;8921;-59
2021/12/01 04:40:39;;;;;;;;;10.00;10.00;;;;;;;;6490212;39;8947;-59
2021/12/01 04:46:56;;;;;;;;;13.00;10.00;;;;;;;;6489475;46;8923;-59
2021/12/01 04:52:59;;;;;;;;;10.67;9.33;;;;;;;;6490460;39;8869;-58
2021/12/01 04:59:03;;;;;;;;;9.67;9.33;;;;;;;;6490304;46;8913;-58
2021/12/01 05:05:09;;;;;;;;;9.67;9.33;;;;;;;;6460963;31;9018;-57
2021/12/01 05:11:12;;;;;;;;;9.25;7.00;;;;;;;;6491589;46;8925;-60
2021/12/01 05:17:23;;;;;;;;;11.50;11.50;;;;;;;;6491101;39;9295;-60
